Ocoee 2 Observed Data For Previous 48 Hours

Note: Discharge information is a combination of river flows at the Ocoee No. 2 dam and the volume of water diverted by the Ocoee Flume, which bypasses the middle section of the river where recreational rafting is held.

Caption
Day and Hour Reservoir Elevation (behind dam)* Tailwater Elevation (below dam)* Average Hourly Discharge*
1/16/2020 2 AM EST 843.02 2,047
1/16/2020 3 AM EST 843.03 2,081
1/16/2020 4 AM EST 843.00 2,041
1/16/2020 5 AM EST 842.99 2,028
1/16/2020 6 AM EST 843.02 2,057
1/16/2020 7 AM EST 843.01 2,043
1/16/2020 8 AM EST 843.02 2,048
1/16/2020 9 AM EST 842.72 1,685
1/16/2020 10 AM EST 842.72 1,674
1/16/2020 11 AM EST 842.74 1,676
1/16/2020 12 PM EST 842.99 2,013
1/16/2020 1 PM EST 843.00 2,052
1/16/2020 2 PM EST 843.00 2,033
1/16/2020 3 PM EST 843.02 2,035
1/16/2020 4 PM EST 843.00 2,044
1/16/2020 5 PM EST 843.00 2,051
1/16/2020 6 PM EST 843.01 2,049
1/16/2020 7 PM EST 843.00 2,046
1/16/2020 8 PM EST 842.98 2,017
1/16/2020 9 PM EST 842.99 2,026
1/16/2020 10 PM EST 842.99 2,018
1/16/2020 11 PM EST 842.99 2,024
1/17/2020 12 AM EST 842.99 2,020
1/17/2020 1 AM EST 843.00 2,033
1/17/2020 2 AM EST 842.98 2,011
1/17/2020 3 AM EST 843.00 2,035
1/17/2020 4 AM EST 842.99 2,022
1/17/2020 5 AM EST 842.99 2,021
1/17/2020 6 AM EST 842.99 2,025
1/17/2020 7 AM EST 842.99 2,030
1/17/2020 8 AM EST 842.98 2,008
1/17/2020 9 AM EST 843.00 2,019
1/17/2020 10 AM EST 842.98 1,996
1/17/2020 11 AM EST 842.99 2,010
1/17/2020 12 PM EST 842.99 1,999
1/17/2020 1 PM EST 842.98 2,019
1/17/2020 2 PM EST 842.98 2,011
1/17/2020 3 PM EST 842.97 2,011
1/17/2020 4 PM EST 842.98 2,005
1/17/2020 5 PM EST 843.26 2,385
1/17/2020 6 PM EST 843.30 2,461
1/17/2020 7 PM EST 843.29 2,439
1/17/2020 8 PM EST 843.27 2,404
1/17/2020 9 PM EST 843.27 2,424
1/17/2020 10 PM EST 843.30 2,429
1/17/2020 11 PM EST 843.31 2,437
1/18/2020 12 AM EST 843.28 2,428
1/18/2020 1 AM EST 843.30 2,449
1/18/2020 2 AM EST 843.29 2,418
1/18/2020 3 AM EST 843.27 2,399
1/18/2020 4 AM EST 843.15 2,259
1/18/2020 5 AM EST 843.09 2,168
1/18/2020 6 AM EST 843.09 2,152
1/18/2020 7 AM EST 843.08 2,168
1/18/2020 8 AM EST 843.11 2,173
1/18/2020 9 AM EST 843.07 2,160
1/18/2020 10 AM EST 843.07 2,141
1/18/2020 11 AM EST 843.09 2,157
1/18/2020 12 PM EST 843.11 2,168
1/18/2020 1 PM EST 843.07 2,130
1/18/2020 2 PM EST 843.08 2,154
1/18/2020 3 PM EST 843.09 2,167
1/18/2020 4 PM EST 843.08 2,126
1/18/2020 5 PM EST 843.08 2,144
1/18/2020 6 PM EST 843.07 2,130
1/18/2020 7 PM EST 843.08 2,152

Elevations are in feet above sea level. Discharges are in cubic feet per second and are reported at the end of the hour.